sensor_id;sensor_type;location;lat;lon;timestamp;pressure;altitude;pressure_sealevel;temperature;humidity
64336;BME280;50672;53.362;-6.240;2023-02-04T00:00:18;103427.22;;;10.11;77.91
64336;BME280;50672;53.362;-6.240;2023-02-04T00:02:45;103425.28;;;10.13;77.75
64336;BME280;50672;53.362;-6.240;2023-02-04T00:05:13;103425.34;;;10.12;77.20
64336;BME280;50672;53.362;-6.240;2023-02-04T00:07:41;103426.25;;;10.12;77.33
64336;BME280;50672;53.362;-6.240;2023-02-04T00:10:09;103431.69;;;10.12;77.05
64336;BME280;50672;53.362;-6.240;2023-02-04T00:12:37;103434.19;;;10.15;76.83
64336;BME280;50672;53.362;-6.240;2023-02-04T00:15:04;103436.91;;;10.15;76.46
64336;BME280;50672;53.362;-6.240;2023-02-04T00:17:31;103434.19;;;10.15;76.64
64336;BME280;50672;53.362;-6.240;2023-02-04T00:19:57;103434.19;;;10.15;76.01
64336;BME280;50672;53.362;-6.240;2023-02-04T00:22:24;103431.47;;;10.15;76.18
64336;BME280;50672;53.362;-6.240;2023-02-04T00:24:53;103439.63;;;10.15;75.95
64336;BME280;50672;53.362;-6.240;2023-02-04T00:27:20;103431.34;;;10.17;75.62
64336;BME280;50672;53.362;-6.240;2023-02-04T00:29:47;103438.56;;;10.18;75.06
64336;BME280;50672;53.362;-6.240;2023-02-04T00:32:14;103438.44;;;10.19;75.17
64336;BME280;50672;53.362;-6.240;2023-02-04T00:34:41;103433.97;;;10.18;74.81
64336;BME280;50672;53.362;-6.240;2023-02-04T00:37:14;103433.00;;;10.19;74.64
64336;BME280;50672;53.362;-6.240;2023-02-04T00:39:41;103441.06;;;10.21;74.53
64336;BME280;50672;53.362;-6.240;2023-02-04T00:42:08;103431.06;;;10.21;74.22
64336;BME280;50672;53.362;-6.240;2023-02-04T00:44:35;103440.09;;;10.22;74.44
64336;BME280;50672;53.362;-6.240;2023-02-04T00:47:03;103440.09;;;10.22;74.16
64336;BME280;50672;53.362;-6.240;2023-02-04T00:49:31;103432.78;;;10.22;73.86
64336;BME280;50672;53.362;-6.240;2023-02-04T00:51:58;103432.78;;;10.22;74.04
64336;BME280;50672;53.362;-6.240;2023-02-04T00:54:26;103426.47;;;10.22;73.59
64336;BME280;50672;53.362;-6.240;2023-02-04T00:56:53;103429.19;;;10.22;73.60
64336;BME280;50672;53.362;-6.240;2023-02-04T00:59:19;103427.44;;;10.21;73.67
64336;BME280;50672;53.362;-6.240;2023-02-04T01:01:46;103425.63;;;10.21;73.57
64336;BME280;50672;53.362;-6.240;2023-02-04T01:04:13;103422.88;;;10.21;73.35
64336;BME280;50672;53.362;-6.240;2023-02-04T01:06:40;103432.03;;;10.20;73.08
64336;BME280;50672;53.362;-6.240;2023-02-04T01:09:07;103430.28;;;10.19;73.07
64336;BME280;50672;53.362;-6.240;2023-02-04T01:11:34;103423.09;;;10.18;73.04
64336;BME280;50672;53.362;-6.240;2023-02-04T01:14:02;103422.22;;;10.18;73.24
64336;BME280;50672;53.362;-6.240;2023-02-04T01:16:28;103426.81;;;10.17;73.24
64336;BME280;50672;53.362;-6.240;2023-02-04T01:18:55;103433.97;;;10.18;72.93
64336;BME280;50672;53.362;-6.240;2023-02-04T01:21:22;103435.03;;;10.16;72.57
64336;BME280;50672;53.362;-6.240;2023-02-04T01:23:50;103435.94;;;10.16;72.55
64336;BME280;50672;53.362;-6.240;2023-02-04T01:26:18;103433.22;;;10.16;72.72
64336;BME280;50672;53.362;-6.240;2023-02-04T01:28:45;103431.47;;;10.15;72.59
64336;BME280;50672;53.362;-6.240;2023-02-04T01:31:12;103439.63;;;10.15;72.29
64336;BME280;50672;53.362;-6.240;2023-02-04T01:33:40;103433.31;;;10.15;72.48
64336;BME280;50672;53.362;-6.240;2023-02-04T01:36:07;103436.16;;;10.13;72.09
64336;BME280;50672;53.362;-6.240;2023-02-04T01:38:34;103443.31;;;10.14;72.16
64336;BME280;50672;53.362;-6.240;2023-02-04T01:41:02;103437.88;;;10.14;72.22
64336;BME280;50672;53.362;-6.240;2023-02-04T01:43:30;103444.31;;;10.13;72.12
64336;BME280;50672;53.362;-6.240;2023-02-04T01:45:57;103438.88;;;10.13;72.03
64336;BME280;50672;53.362;-6.240;2023-02-04T01:48:24;103439.84;;;10.12;72.07
64336;BME280;50672;53.362;-6.240;2023-02-04T01:50:53;103438.88;;;10.13;71.90
64336;BME280;50672;53.362;-6.240;2023-02-04T01:53:24;103438.97;;;10.12;71.58
64336;BME280;50672;53.362;-6.240;2023-02-04T01:55:52;103434.41;;;10.12;71.35
64336;BME280;50672;53.362;-6.240;2023-02-04T01:58:19;103442.69;;;10.11;71.28
64336;BME280;50672;53.362;-6.240;2023-02-04T02:00:46;103444.50;;;10.10;71.08
64336;BME280;50672;53.362;-6.240;2023-02-04T02:03:13;103443.66;;;10.09;71.06
64336;BME280;50672;53.362;-6.240;2023-02-04T02:05:51;103444.63;;;10.08;71.11
64336;BME280;50672;53.362;-6.240;2023-02-04T02:08:19;103439.28;;;10.07;71.05
64336;BME280;50672;53.362;-6.240;2023-02-04T02:10:47;103442.13;;;10.05;70.93
64336;BME280;50672;53.362;-6.240;2023-02-04T02:13:16;103439.41;;;10.05;70.61
64336;BME280;50672;53.362;-6.240;2023-02-04T02:15:44;103443.88;;;10.06;70.72
64336;BME280;50672;53.362;-6.240;2023-02-04T02:18:12;103437.53;;;10.06;70.48
64336;BME280;50672;53.362;-6.240;2023-02-04T02:20:42;103442.00;;;10.07;70.69
64336;BME280;50672;53.362;-6.240;2023-02-04T02:25:49;103446.59;;;10.06;70.62
64336;BME280;50672;53.362;-6.240;2023-02-04T02:28:19;103438.66;;;10.03;70.33
64336;BME280;50672;53.362;-6.240;2023-02-04T02:30:47;103446.81;;;10.03;70.35
64336;BME280;50672;53.362;-6.240;2023-02-04T02:33:19;103449.53;;;10.03;70.34
64336;BME280;50672;53.362;-6.240;2023-02-04T02:35:46;103452.25;;;10.03;70.16
64336;BME280;50672;53.362;-6.240;2023-02-04T02:38:21;103453.09;;;10.04;70.19
64336;BME280;50672;53.362;-6.240;2023-02-04T02:40:48;103445.91;;;10.03;69.68
64336;BME280;50672;53.362;-6.240;2023-02-04T02:43:19;103453.22;;;10.02;69.56
64336;BME280;50672;53.362;-6.240;2023-02-04T02:45:47;103452.25;;;10.03;69.58
64336;BME280;50672;53.362;-6.240;2023-02-04T02:48:15;103451.34;;;10.03;69.67
64336;BME280;50672;53.362;-6.240;2023-02-04T02:50:43;103449.59;;;10.02;69.48
64336;BME280;50672;53.362;-6.240;2023-02-04T02:53:20;103454.19;;;10.01;69.63
64336;BME280;50672;53.362;-6.240;2023-02-04T02:55:47;103446.13;;;10.00;69.31
64336;BME280;50672;53.362;-6.240;2023-02-04T02:58:23;103457.03;;;10.00;69.16
64336;BME280;50672;53.362;-6.240;2023-02-04T03:01:11;103456.25;;;9.98;69.33
64336;BME280;50672;53.362;-6.240;2023-02-04T03:04:40;103443.75;;;9.95;69.39
64336;BME280;50672;53.362;-6.240;2023-02-04T03:08:05;103456.56;;;9.93;69.01
64336;BME280;50672;53.362;-6.240;2023-02-04T03:11:32;103450.47;;;9.89;69.13
64336;BME280;50672;53.362;-6.240;2023-02-04T03:15:24;103435.22;;;9.87;69.14
64336;BME280;50672;53.362;-6.240;2023-02-04T03:18:51;103442.59;;;9.85;68.93
64336;BME280;50672;53.362;-6.240;2023-02-04T03:22:17;103440.00;;;9.83;69.34
64336;BME280;50672;53.362;-6.240;2023-02-04T03:25:24;103433.69;;;9.83;69.24
64336;BME280;50672;53.362;-6.240;2023-02-04T03:27:57;103434.75;;;9.80;69.00
64336;BME280;50672;53.362;-6.240;2023-02-04T03:30:25;103440.31;;;9.79;69.17
64336;BME280;50672;53.362;-6.240;2023-02-04T03:32:52;103435.84;;;9.78;69.02
64336;BME280;50672;53.362;-6.240;2023-02-04T03:35:19;103431.25;;;9.78;68.91
64336;BME280;50672;53.362;-6.240;2023-02-04T03:37:46;103443.13;;;9.77;69.03
64336;BME280;50672;53.362;-6.240;2023-02-04T03:40:13;103440.31;;;9.79;68.94
64336;BME280;50672;53.362;-6.240;2023-02-04T03:42:40;103438.34;;;9.81;68.58
64336;BME280;50672;53.362;-6.240;2023-02-04T03:45:07;103434.88;;;9.79;68.40
64336;BME280;50672;53.362;-6.240;2023-02-04T03:47:34;103432.16;;;9.79;68.52
64336;BME280;50672;53.362;-6.240;2023-02-04T03:50:01;103440.22;;;9.80;68.41
64336;BME280;50672;53.362;-6.240;2023-02-04T03:52:28;103425.75;;;9.80;68.37
64336;BME280;50672;53.362;-6.240;2023-02-04T03:54:55;103427.47;;;9.81;67.91
64336;BME280;50672;53.362;-6.240;2023-02-04T03:57:21;103440.22;;;9.80;67.76
64336;BME280;50672;53.362;-6.240;2023-02-04T03:59:48;103444.78;;;9.80;67.81
64336;BME280;50672;53.362;-6.240;2023-02-04T04:02:15;103437.47;;;9.80;67.84
64336;BME280;50672;53.362;-6.240;2023-02-04T04:04:42;103442.94;;;9.80;67.70
64336;BME280;50672;53.362;-6.240;2023-02-04T04:07:08;103429.31;;;9.80;67.59
64336;BME280;50672;53.362;-6.240;2023-02-04T04:09:35;103434.88;;;9.79;67.23
64336;BME280;50672;53.362;-6.240;2023-02-04T04:12:02;103439.34;;;9.80;67.23
64336;BME280;50672;53.362;-6.240;2023-02-04T04:14:29;103430.41;;;9.78;67.06
64336;BME280;50672;53.362;-6.240;2023-02-04T04:16:56;103415.94;;;9.77;67.32
64336;BME280;50672;53.362;-6.240;2023-02-04T04:19:23;103420.31;;;9.80;66.80
64336;BME280;50672;53.362;-6.240;2023-02-04T04:21:50;103420.31;;;9.80;67.05
64336;BME280;50672;53.362;-6.240;2023-02-04T04:24:17;103419.41;;;9.79;66.91
64336;BME280;50672;53.362;-6.240;2023-02-04T04:26:44;103418.56;;;9.79;66.52
64336;BME280;50672;53.362;-6.240;2023-02-04T04:29:10;103414.19;;;9.76;66.84
64336;BME280;50672;53.362;-6.240;2023-02-04T04:31:37;103412.22;;;9.78;66.75
64336;BME280;50672;53.362;-6.240;2023-02-04T04:34:04;103416.06;;;9.75;66.69
64336;BME280;50672;53.362;-6.240;2023-02-04T04:36:31;103412.44;;;9.75;66.18
64336;BME280;50672;53.362;-6.240;2023-02-04T04:38:58;103416.91;;;9.76;66.33
64336;BME280;50672;53.362;-6.240;2023-02-04T04:41:25;103413.44;;;9.74;66.37
64336;BME280;50672;53.362;-6.240;2023-02-04T04:43:52;103416.06;;;9.75;66.14
64336;BME280;50672;53.362;-6.240;2023-02-04T04:46:18;103428.66;;;9.77;66.44
64336;BME280;50672;53.362;-6.240;2023-02-04T04:48:45;103424.31;;;9.74;66.04
64336;BME280;50672;53.362;-6.240;2023-02-04T04:51:12;103435.19;;;9.74;66.42
64336;BME280;50672;53.362;-6.240;2023-02-04T04:53:39;103428.00;;;9.73;66.07
64336;BME280;50672;53.362;-6.240;2023-02-04T04:56:05;103433.34;;;9.74;66.35
64336;BME280;50672;53.362;-6.240;2023-02-04T04:58:32;103431.47;;;9.75;66.10
64336;BME280;50672;53.362;-6.240;2023-02-04T05:00:59;103435.19;;;9.74;66.20
64336;BME280;50672;53.362;-6.240;2023-02-04T05:03:28;103434.41;;;9.72;66.42
64336;BME280;50672;53.362;-6.240;2023-02-04T05:05:54;103429.81;;;9.72;66.24
64336;BME280;50672;53.362;-6.240;2023-02-04T05:08:21;103432.56;;;9.72;66.27
64336;BME280;50672;53.362;-6.240;2023-02-04T05:10:48;103442.56;;;9.72;66.50
64336;BME280;50672;53.362;-6.240;2023-02-04T05:13:15;103442.56;;;9.72;66.22
64336;BME280;50672;53.362;-6.240;2023-02-04T05:15:41;103441.81;;;9.70;66.33
64336;BME280;50672;53.362;-6.240;2023-02-04T05:18:08;103437.34;;;9.69;66.39
64336;BME280;50672;53.362;-6.240;2023-02-04T05:20:35;103437.44;;;9.67;66.36
64336;BME280;50672;53.362;-6.240;2023-02-04T05:23:02;103444.72;;;9.67;66.30
64336;BME280;50672;53.362;-6.240;2023-02-04T05:25:31;103445.59;;;9.67;66.27
64336;BME280;50672;53.362;-6.240;2023-02-04T05:27:58;103449.28;;;9.66;66.25
64336;BME280;50672;53.362;-6.240;2023-02-04T05:30:24;103449.28;;;9.66;66.57
64336;BME280;50672;53.362;-6.240;2023-02-04T05:32:51;103443.97;;;9.65;66.42
64336;BME280;50672;53.362;-6.240;2023-02-04T05:35:18;103451.25;;;9.64;66.54
64336;BME280;50672;53.362;-6.240;2023-02-04T05:37:46;103445.81;;;9.64;66.68
64336;BME280;50672;53.362;-6.240;2023-02-04T05:40:13;103448.63;;;9.63;66.43
64336;BME280;50672;53.362;-6.240;2023-02-04T05:42:40;103448.63;;;9.63;66.37
64336;BME280;50672;53.362;-6.240;2023-02-04T05:45:15;103442.31;;;9.62;66.45
64336;BME280;50672;53.362;-6.240;2023-02-04T05:47:42;103438.63;;;9.63;66.58
64336;BME280;50672;53.362;-6.240;2023-02-04T05:50:10;103437.75;;;9.63;66.76
64336;BME280;50672;53.362;-6.240;2023-02-04T05:52:36;103433.19;;;9.63;66.50
64336;BME280;50672;53.362;-6.240;2023-02-04T05:55:03;103428.72;;;9.62;66.67
64336;BME280;50672;53.362;-6.240;2023-02-04T05:57:30;103426.88;;;9.63;66.75
64336;BME280;50672;53.362;-6.240;2023-02-04T05:59:58;103425.03;;;9.63;66.44
64336;BME280;50672;53.362;-6.240;2023-02-04T06:02:24;103426.97;;;9.61;66.76
64336;BME280;50672;53.362;-6.240;2023-02-04T06:04:51;103432.50;;;9.60;66.45
64336;BME280;50672;53.362;-6.240;2023-02-04T06:07:18;103427.06;;;9.60;66.76
64336;BME280;50672;53.362;-6.240;2023-02-04T06:09:45;103425.31;;;9.58;66.52
64336;BME280;50672;53.362;-6.240;2023-02-04T06:12:11;103421.63;;;9.60;66.70
64336;BME280;50672;53.362;-6.240;2023-02-04T06:14:38;103422.53;;;9.60;66.46
64336;BME280;50672;53.362;-6.240;2023-02-04T06:17:05;103420.66;;;9.61;66.89
64336;BME280;50672;53.362;-6.240;2023-02-04T06:19:32;103421.41;;;9.63;66.89
64336;BME280;50672;53.362;-6.240;2023-02-04T06:21:59;103426.00;;;9.62;66.42
64336;BME280;50672;53.362;-6.240;2023-02-04T06:24:25;103434.94;;;9.64;66.80
64336;BME280;50672;53.362;-6.240;2023-02-04T06:26:52;103427.75;;;9.63;66.73
64336;BME280;50672;53.362;-6.240;2023-02-04T06:29:19;103434.06;;;9.64;66.52
64336;BME280;50672;53.362;-6.240;2023-02-04T06:31:46;103433.09;;;9.65;66.64
64336;BME280;50672;53.362;-6.240;2023-02-04T06:34:15;103427.75;;;9.63;66.56
64336;BME280;50672;53.362;-6.240;2023-02-04T06:36:41;103424.94;;;9.65;66.59
64336;BME280;50672;53.362;-6.240;2023-02-04T06:39:08;103422.31;;;9.63;66.84
64336;BME280;50672;53.362;-6.240;2023-02-04T06:41:35;103424.94;;;9.65;66.86
64336;BME280;50672;53.362;-6.240;2023-02-04T06:44:02;103426.78;;;9.64;66.49
64336;BME280;50672;53.362;-6.240;2023-02-04T06:46:28;103427.66;;;9.65;66.53
64336;BME280;50672;53.362;-6.240;2023-02-04T06:48:55;103425.78;;;9.65;66.62
64336;BME280;50672;53.362;-6.240;2023-02-04T06:51:22;103427.66;;;9.65;66.67
64336;BME280;50672;53.362;-6.240;2023-02-04T06:53:49;103430.38;;;9.65;66.78
64336;BME280;50672;53.362;-6.240;2023-02-04T06:56:15;103433.09;;;9.65;66.96
64336;BME280;50672;53.362;-6.240;2023-02-04T06:58:42;103439.28;;;9.67;67.09
64336;BME280;50672;53.362;-6.240;2023-02-04T07:01:09;103424.94;;;9.65;66.73
64336;BME280;50672;53.362;-6.240;2023-02-04T07:03:36;103427.53;;;9.66;67.13
64336;BME280;50672;53.362;-6.240;2023-02-04T07:06:02;103431.22;;;9.65;66.97
64336;BME280;50672;53.362;-6.240;2023-02-04T07:08:29;103430.16;;;9.68;66.91
64336;BME280;50672;53.362;-6.240;2023-02-04T07:10:56;103432.88;;;9.68;66.91
64336;BME280;50672;53.362;-6.240;2023-02-04T07:13:23;103431.00;;;9.68;66.88
64336;BME280;50672;53.362;-6.240;2023-02-04T07:15:49;103430.16;;;9.68;67.41
64336;BME280;50672;53.362;-6.240;2023-02-04T07:18:18;103428.28;;;9.68;67.04
64336;BME280;50672;53.362;-6.240;2023-02-04T07:20:45;103420.13;;;9.68;67.51
64336;BME280;50672;53.362;-6.240;2023-02-04T07:23:12;103419.28;;;9.68;67.38
64336;BME280;50672;53.362;-6.240;2023-02-04T07:25:39;103422.00;;;9.68;67.26
64336;BME280;50672;53.362;-6.240;2023-02-04T07:28:05;103408.41;;;9.68;67.31
64336;BME280;50672;53.362;-6.240;2023-02-04T07:30:32;103414.69;;;9.68;67.59
64336;BME280;50672;53.362;-6.240;2023-02-04T07:33:00;103413.84;;;9.68;67.26
64336;BME280;50672;53.362;-6.240;2023-02-04T07:35:26;103419.16;;;9.69;67.68
64336;BME280;50672;53.362;-6.240;2023-02-04T07:37:53;103411.00;;;9.69;67.62
64336;BME280;50672;53.362;-6.240;2023-02-04T07:40:20;103429.06;;;9.70;67.60
64336;BME280;50672;53.362;-6.240;2023-02-04T07:42:47;103418.09;;;9.72;67.62
64336;BME280;50672;53.362;-6.240;2023-02-04T07:45:14;103420.81;;;9.72;67.73
64336;BME280;50672;53.362;-6.240;2023-02-04T07:47:41;103423.53;;;9.72;67.52
64336;BME280;50672;53.362;-6.240;2023-02-04T07:50:08;103411.78;;;9.71;67.85
64336;BME280;50672;53.362;-6.240;2023-02-04T07:52:34;103414.50;;;9.71;67.79
64336;BME280;50672;53.362;-6.240;2023-02-04T07:55:01;103414.50;;;9.71;67.64
64336;BME280;50672;53.362;-6.240;2023-02-04T07:57:28;103426.25;;;9.72;67.62
64336;BME280;50672;53.362;-6.240;2023-02-04T07:59:55;103428.00;;;9.73;67.69
64336;BME280;50672;53.362;-6.240;2023-02-04T08:02:22;103433.56;;;9.71;67.64
64336;BME280;50672;53.362;-6.240;2023-02-04T08:04:49;103425.38;;;9.71;67.89
64336;BME280;50672;53.362;-6.240;2023-02-04T08:07:16;103435.28;;;9.72;67.80
64336;BME280;50672;53.362;-6.240;2023-02-04T08:09:43;103437.91;;;9.74;67.50
64336;BME280;50672;53.362;-6.240;2023-02-04T08:12:10;103429.75;;;9.74;67.78
64336;BME280;50672;53.362;-6.240;2023-02-04T08:14:36;103446.94;;;9.74;67.79
64336;BME280;50672;53.362;-6.240;2023-02-04T08:17:03;103444.09;;;9.76;67.51
64336;BME280;50672;53.362;-6.240;2023-02-04T08:19:30;103449.53;;;9.76;67.73
64336;BME280;50672;53.362;-6.240;2023-02-04T08:21:57;103457.72;;;9.76;67.81
64336;BME280;50672;53.362;-6.240;2023-02-04T08:24:23;103454.88;;;9.78;67.80
64336;BME280;50672;53.362;-6.240;2023-02-04T08:26:50;103447.59;;;9.78;67.89
64336;BME280;50672;53.362;-6.240;2023-02-04T08:29:17;103441.28;;;9.78;67.89
64336;BME280;50672;53.362;-6.240;2023-02-04T08:31:44;103443.91;;;9.79;67.65
64336;BME280;50672;53.362;-6.240;2023-02-04T08:34:13;103448.38;;;9.80;67.74
64336;BME280;50672;53.362;-6.240;2023-02-04T08:36:40;103445.66;;;9.80;67.76
64336;BME280;50672;53.362;-6.240;2023-02-04T08:39:07;103450.22;;;9.80;67.81
64336;BME280;50672;53.362;-6.240;2023-02-04T08:41:33;103452.84;;;9.81;67.76
64336;BME280;50672;53.362;-6.240;2023-02-04T08:44:00;103453.69;;;9.82;68.08
64336;BME280;50672;53.362;-6.240;2023-02-04T08:46:28;103455.44;;;9.83;68.09
64336;BME280;50672;53.362;-6.240;2023-02-04T08:48:56;103467.19;;;9.83;68.53
64336;BME280;50672;53.362;-6.240;2023-02-04T08:51:22;103468.94;;;9.84;68.55
64336;BME280;50672;53.362;-6.240;2023-02-04T08:53:49;103466.13;;;9.86;68.20
64336;BME280;50672;53.362;-6.240;2023-02-04T08:56:16;103472.41;;;9.86;68.33
64336;BME280;50672;53.362;-6.240;2023-02-04T08:58:45;103472.41;;;9.86;68.78
64336;BME280;50672;53.362;-6.240;2023-02-04T09:01:13;103474.06;;;9.89;68.90
64336;BME280;50672;53.362;-6.240;2023-02-04T09:03:40;103482.22;;;9.89;68.82
64336;BME280;50672;53.362;-6.240;2023-02-04T09:06:07;103486.81;;;9.88;68.96
64336;BME280;50672;53.362;-6.240;2023-02-04T09:08:34;103483.97;;;9.90;69.25
64336;BME280;50672;53.362;-6.240;2023-02-04T09:11:01;103491.28;;;9.89;69.02
64336;BME280;50672;53.362;-6.240;2023-02-04T09:13:29;103498.66;;;9.87;69.54
64336;BME280;50672;53.362;-6.240;2023-02-04T09:15:56;103495.19;;;9.85;69.83
64336;BME280;50672;53.362;-6.240;2023-02-04T09:18:23;103501.59;;;9.84;70.14
64336;BME280;50672;53.362;-6.240;2023-02-04T09:20:51;103514.22;;;9.85;70.05
64336;BME280;50672;53.362;-6.240;2023-02-04T09:23:18;103511.50;;;9.85;70.33
64336;BME280;50672;53.362;-6.240;2023-02-04T09:25:45;103517.81;;;9.86;70.98
64336;BME280;50672;53.362;-6.240;2023-02-04T09:28:13;103508.97;;;9.82;71.07
64336;BME280;50672;53.362;-6.240;2023-02-04T09:30:42;103499.84;;;9.83;71.40
64336;BME280;50672;53.362;-6.240;2023-02-04T09:33:10;103499.63;;;9.86;71.26
64336;BME280;50672;53.362;-6.240;2023-02-04T09:35:37;103498.66;;;9.87;71.40
64336;BME280;50672;53.362;-6.240;2023-02-04T09:38:04;103496.50;;;9.92;71.57
64336;BME280;50672;53.362;-6.240;2023-02-04T09:40:35;103491.63;;;9.98;71.73
64336;BME280;50672;53.362;-6.240;2023-02-04T09:43:04;103493.16;;;10.02;71.73
64336;BME280;50672;53.362;-6.240;2023-02-04T09:45:34;103501.88;;;10.07;71.90
64336;BME280;50672;53.362;-6.240;2023-02-04T09:48:03;103501.78;;;10.08;72.15
64336;BME280;50672;53.362;-6.240;2023-02-04T09:50:31;103500.06;;;10.07;71.77
64336;BME280;50672;53.362;-6.240;2023-02-04T09:53:02;103505.28;;;10.11;71.77
64336;BME280;50672;53.362;-6.240;2023-02-04T09:55:34;103501.91;;;10.20;71.53
64336;BME280;50672;53.362;-6.240;2023-02-04T09:58:02;103500.59;;;10.25;71.75
64336;BME280;50672;53.362;-6.240;2023-02-04T10:00:29;103495.94;;;10.27;71.65
64336;BME280;50672;53.362;-6.240;2023-02-04T10:02:59;103502.16;;;10.30;71.55
64336;BME280;50672;53.362;-6.240;2023-02-04T10:05:32;103494.19;;;10.26;71.39
64336;BME280;50672;53.362;-6.240;2023-02-04T10:07:59;103502.47;;;10.25;71.46
64336;BME280;50672;53.362;-6.240;2023-02-04T10:10:26;103498.88;;;10.24;71.07
64336;BME280;50672;53.362;-6.240;2023-02-04T10:12:56;103495.16;;;10.25;71.11
64336;BME280;50672;53.362;-6.240;2023-02-04T10:15:24;103500.59;;;10.25;71.11
64336;BME280;50672;53.362;-6.240;2023-02-04T10:17:57;103504.22;;;10.26;71.15
64336;BME280;50672;53.362;-6.240;2023-02-04T10:20:28;103510.41;;;10.28;71.27
64336;BME280;50672;53.362;-6.240;2023-02-04T10:22:55;103508.25;;;10.33;71.22
64336;BME280;50672;53.362;-6.240;2023-02-04T10:25:24;103499.06;;;10.36;70.97
64336;BME280;50672;53.362;-6.240;2023-02-04T10:27:53;103508.06;;;10.36;71.10
64336;BME280;50672;53.362;-6.240;2023-02-04T10:30:29;103514.09;;;10.41;71.03
64336;BME280;50672;53.362;-6.240;2023-02-04T10:33:11;103517.03;;;10.38;70.64
64336;BME280;50672;53.362;-6.240;2023-02-04T10:35:46;103512.34;;;10.40;70.89
64336;BME280;50672;53.362;-6.240;2023-02-04T10:38:14;103510.28;;;10.44;70.84
64336;BME280;50672;53.362;-6.240;2023-02-04T10:40:41;103520.97;;;10.47;70.44
64336;BME280;50672;53.362;-6.240;2023-02-04T10:43:26;103524.44;;;10.49;70.89
64336;BME280;50672;53.362;-6.240;2023-02-04T10:46:01;103518.97;;;10.49;70.80
64336;BME280;50672;53.362;-6.240;2023-02-04T10:48:28;103524.25;;;10.52;70.66
64336;BME280;50672;53.362;-6.240;2023-02-04T10:50:57;103525.97;;;10.53;70.56
64336;BME280;50672;53.362;-6.240;2023-02-04T10:53:25;103522.94;;;10.58;70.40
64336;BME280;50672;53.362;-6.240;2023-02-04T10:56:20;103525.09;;;10.66;70.37
64336;BME280;50672;53.362;-6.240;2023-02-04T10:58:48;103515.97;;;10.67;70.60
64336;BME280;50672;53.362;-6.240;2023-02-04T11:01:15;103516.41;;;10.73;70.84
64336;BME280;50672;53.362;-6.240;2023-02-04T11:03:43;103507.69;;;10.81;70.63
64336;BME280;50672;53.362;-6.240;2023-02-04T11:06:23;103509.88;;;10.89;70.68
64336;BME280;50672;53.362;-6.240;2023-02-04T11:08:50;103523.81;;;10.97;70.58
64336;BME280;50672;53.362;-6.240;2023-02-04T11:11:24;103519.91;;;11.01;70.02
64336;BME280;50672;53.362;-6.240;2023-02-04T11:16:25;103513.88;;;11.09;69.87
64336;BME280;50672;53.362;-6.240;2023-02-04T11:19:00;103529.25;;;11.10;70.03
64336;BME280;50672;53.362;-6.240;2023-02-04T11:24:21;103521.81;;;11.12;69.63
64336;BME280;50672;53.362;-6.240;2023-02-04T11:27:04;103520.53;;;11.18;69.62
64336;BME280;50672;53.362;-6.240;2023-02-04T11:29:33;103521.16;;;11.21;69.36
64336;BME280;50672;53.362;-6.240;2023-02-04T11:32:31;103519.22;;;11.23;69.29
64336;BME280;50672;53.362;-6.240;2023-02-04T11:35:16;103516.16;;;11.28;69.29
64336;BME280;50672;53.362;-6.240;2023-02-04T11:37:46;103512.34;;;11.31;69.02
64336;BME280;50672;53.362;-6.240;2023-02-04T11:42:56;103505.97;;;11.30;68.77
64336;BME280;50672;53.362;-6.240;2023-02-04T11:45:24;103498.66;;;11.43;68.69
64336;BME280;50672;53.362;-6.240;2023-02-04T11:47:52;103511.50;;;11.54;68.92
64336;BME280;50672;53.362;-6.240;2023-02-04T11:50:29;103509.53;;;11.56;68.50
64336;BME280;50672;53.362;-6.240;2023-02-04T11:52:58;103510.19;;;11.60;68.35
64336;BME280;50672;53.362;-6.240;2023-02-04T11:55:29;103515.75;;;11.58;68.04
64336;BME280;50672;53.362;-6.240;2023-02-04T11:57:57;103508.31;;;11.60;67.92
64336;BME280;50672;53.362;-6.240;2023-02-04T12:00:28;103509.25;;;11.72;68.05
64336;BME280;50672;53.362;-6.240;2023-02-04T12:02:59;103495.69;;;11.84;67.80
64336;BME280;50672;53.362;-6.240;2023-02-04T12:05:35;103491.50;;;11.91;67.64
64336;BME280;50672;53.362;-6.240;2023-02-04T12:08:32;103495.41;;;12.00;67.14
64336;BME280;50672;53.362;-6.240;2023-02-04T12:13:33;103494.00;;;12.18;67.03
64336;BME280;50672;53.362;-6.240;2023-02-04T12:16:11;103493.16;;;12.29;66.41
64336;BME280;50672;53.362;-6.240;2023-02-04T12:18:38;103486.34;;;12.46;66.69
64336;BME280;50672;53.362;-6.240;2023-02-04T12:21:05;103490.00;;;12.58;66.10
64336;BME280;50672;53.362;-6.240;2023-02-04T12:23:32;103485.13;;;12.50;65.98
64336;BME280;50672;53.362;-6.240;2023-02-04T12:25:59;103478.41;;;12.43;65.71
64336;BME280;50672;53.362;-6.240;2023-02-04T12:28:26;103484.41;;;12.48;65.76
64336;BME280;50672;53.362;-6.240;2023-02-04T12:30:56;103477.19;;;12.47;65.80
64336;BME280;50672;53.362;-6.240;2023-02-04T12:33:22;103477.06;;;12.48;65.84
64336;BME280;50672;53.362;-6.240;2023-02-04T12:35:49;103473.47;;;12.48;65.62
64336;BME280;50672;53.362;-6.240;2023-02-04T12:38:16;103479.78;;;12.48;65.43
64336;BME280;50672;53.362;-6.240;2023-02-04T12:40:45;103494.81;;;12.54;65.04
64336;BME280;50672;53.362;-6.240;2023-02-04T12:43:12;103490.13;;;12.56;65.41
64336;BME280;50672;53.362;-6.240;2023-02-04T12:45:39;103492.47;;;12.50;65.24
64336;BME280;50672;53.362;-6.240;2023-02-04T12:48:11;103488.72;;;12.39;65.28
64336;BME280;50672;53.362;-6.240;2023-02-04T12:50:39;103487.44;;;12.32;64.87
64336;BME280;50672;53.362;-6.240;2023-02-04T12:53:06;103490.28;;;12.30;65.04
64336;BME280;50672;53.362;-6.240;2023-02-04T12:55:33;103491.06;;;12.33;64.84
64336;BME280;50672;53.362;-6.240;2023-02-04T12:58:00;103492.59;;;12.48;64.72
64336;BME280;50672;53.362;-6.240;2023-02-04T13:00:27;103490.84;;;12.58;65.05
64336;BME280;50672;53.362;-6.240;2023-02-04T13:02:54;103499.81;;;12.60;64.80
64336;BME280;50672;53.362;-6.240;2023-02-04T13:05:21;103495.09;;;12.62;64.33
64336;BME280;50672;53.362;-6.240;2023-02-04T13:07:48;103503.78;;;12.56;64.56
64336;BME280;50672;53.362;-6.240;2023-02-04T13:10:14;103494.09;;;12.63;64.26